createdAt,value
2019-01-18T00:00:21.265Z,1003.76
2019-01-18T00:01:21.314Z,1003.79
2019-01-18T00:02:21.362Z,1003.77
2019-01-18T00:03:21.412Z,1003.79
2019-01-18T00:04:21.460Z,1003.78
2019-01-18T00:05:21.511Z,1003.85
2019-01-18T00:06:21.557Z,1003.85
2019-01-18T00:07:21.607Z,1003.84
2019-01-18T00:08:21.655Z,1003.87
2019-01-18T00:09:21.705Z,1003.87
2019-01-18T00:10:21.753Z,1003.89
2019-01-18T00:11:21.802Z,1003.91
2019-01-18T00:12:21.851Z,1003.90
2019-01-18T00:13:21.903Z,1003.89
2019-01-18T00:14:21.952Z,1003.90
2019-01-18T00:15:21.999Z,1003.91
2019-01-18T00:16:22.046Z,1003.93
2019-01-18T00:17:22.095Z,1003.93
2019-01-18T00:18:22.160Z,1003.97
2019-01-18T00:19:22.202Z,1003.97
2019-01-18T00:20:22.243Z,1004.01
2019-01-18T00:21:22.291Z,1004.04
2019-01-18T00:22:22.341Z,1004.03
2019-01-18T00:23:22.389Z,1004.06
2019-01-18T00:24:22.453Z,1004.04
2019-01-18T00:25:22.486Z,1004.05
2019-01-18T00:26:22.535Z,1004.04
2019-01-18T00:27:22.583Z,1004.08
2019-01-18T00:28:22.632Z,1004.06
2019-01-18T00:29:22.681Z,1004.08
2019-01-18T00:30:22.730Z,1004.12
2019-01-18T00:31:22.779Z,1004.13
2019-01-18T00:32:22.828Z,1004.13
2019-01-18T00:33:22.878Z,1004.18
2019-01-18T00:34:22.926Z,1004.20
2019-01-18T00:35:22.974Z,1004.21
2019-01-18T00:36:23.023Z,1004.17
2019-01-18T00:37:23.071Z,1004.21
2019-01-18T00:38:23.120Z,1004.20
2019-01-18T00:39:23.170Z,1004.24
2019-01-18T00:40:23.218Z,1004.22
2019-01-18T00:41:23.266Z,1004.24
2019-01-18T00:42:23.315Z,1004.27
2019-01-18T00:43:23.364Z,1004.28
2019-01-18T00:44:23.413Z,1004.28
2019-01-18T00:45:23.462Z,1004.33
2019-01-18T00:46:23.510Z,1004.32
2019-01-18T00:47:23.559Z,1004.34
2019-01-18T00:48:23.608Z,1004.35
2019-01-18T00:49:23.655Z,1004.36
2019-01-18T00:50:23.705Z,1004.36
2019-01-18T00:51:23.754Z,1004.35
2019-01-18T00:52:23.803Z,1004.35
2019-01-18T00:53:23.852Z,1004.37
2019-01-18T00:54:23.900Z,1004.41
2019-01-18T00:55:23.948Z,1004.41
2019-01-18T00:56:23.998Z,1004.39
2019-01-18T00:57:24.046Z,1004.45
2019-01-18T00:58:24.095Z,1004.44
2019-01-18T00:59:24.143Z,1004.53
2019-01-18T01:00:24.193Z,1004.51
2019-01-18T01:01:24.243Z,1004.50
2019-01-18T01:02:24.291Z,1004.47
2019-01-18T01:03:24.340Z,1004.55
2019-01-18T01:04:24.388Z,1004.50
2019-01-18T01:05:24.440Z,1004.51
2019-01-18T01:06:24.517Z,1004.51
2019-01-18T01:07:24.534Z,1004.55
2019-01-18T01:08:24.587Z,1004.55
2019-01-18T01:09:24.635Z,1004.52
2019-01-18T01:10:24.681Z,1004.59
2019-01-18T01:11:24.731Z,1004.56
2019-01-18T01:12:24.782Z,1004.58
2019-01-18T01:13:24.868Z,1004.63
2019-01-18T01:14:24.876Z,1004.64
2019-01-18T01:15:24.926Z,1004.64
2019-01-18T01:16:24.974Z,1004.66
2019-01-18T01:17:25.047Z,1004.63
2019-01-18T01:18:25.072Z,1004.66
2019-01-18T01:19:25.120Z,1004.68
2019-01-18T01:20:25.171Z,1004.69
2019-01-18T01:21:25.227Z,1004.66
2019-01-18T01:22:25.269Z,1004.73
2019-01-18T01:23:25.321Z,1004.73
2019-01-18T01:24:25.365Z,1004.73
2019-01-18T01:25:25.416Z,1004.76
2019-01-18T01:26:25.465Z,1004.78
2019-01-18T01:27:25.512Z,1004.79
2019-01-18T01:28:25.560Z,1004.77
2019-01-18T01:29:25.609Z,1004.79
2019-01-18T01:30:25.658Z,1004.78
2019-01-18T01:31:25.741Z,1004.80
2019-01-18T01:32:25.755Z,1004.82
2019-01-18T01:33:25.804Z,1004.83
2019-01-18T01:34:25.852Z,1004.87
2019-01-18T01:35:25.905Z,1004.89
2019-01-18T01:36:25.949Z,1004.93
2019-01-18T01:37:26.000Z,1004.96
2019-01-18T01:38:26.048Z,1004.94
2019-01-18T01:39:26.096Z,1004.96
2019-01-18T01:40:26.146Z,1004.96
2019-01-18T01:41:26.195Z,1005.00
2019-01-18T01:42:26.242Z,1004.99
2019-01-18T01:43:26.294Z,1005.04
2019-01-18T01:44:26.341Z,1005.05
2019-01-18T01:45:26.390Z,1005.05
2019-01-18T01:46:26.438Z,1005.04
2019-01-18T01:47:26.517Z,1005.06
2019-01-18T01:48:26.536Z,1005.05
2019-01-18T01:49:26.585Z,1005.13
2019-01-18T01:50:26.634Z,1005.09
2019-01-18T01:51:26.684Z,1005.12
2019-01-18T01:52:26.732Z,1005.12
2019-01-18T01:53:26.781Z,1005.12
2019-01-18T01:54:26.833Z,1005.13
2019-01-18T01:55:26.877Z,1005.18
2019-01-18T01:56:26.927Z,1005.11
2019-01-18T01:57:26.976Z,1005.16
2019-01-18T01:58:27.024Z,1005.16
2019-01-18T01:59:27.072Z,1005.16
2019-01-18T02:00:27.124Z,1005.20
2019-01-18T02:01:27.171Z,1005.21
2019-01-18T02:02:27.219Z,1005.23
2019-01-18T02:03:27.266Z,1005.27
2019-01-18T02:04:27.316Z,1005.22
2019-01-18T02:05:27.366Z,1005.29
2019-01-18T02:06:27.414Z,1005.28
2019-01-18T02:07:27.463Z,1005.29
2019-01-18T02:08:27.510Z,1005.29
2019-01-18T02:09:27.559Z,1005.31
2019-01-18T02:10:27.605Z,1005.28
2019-01-18T02:11:27.655Z,1005.32
2019-01-18T02:12:27.705Z,1005.31
2019-01-18T02:13:27.755Z,1005.34
2019-01-18T02:14:27.803Z,1005.33
2019-01-18T02:15:27.853Z,1005.40
2019-01-18T02:16:27.902Z,1005.43
2019-01-18T02:17:27.947Z,1005.44
2019-01-18T02:18:28.012Z,1005.44
2019-01-18T02:19:28.048Z,1005.47
2019-01-18T02:20:28.098Z,1005.51
2019-01-18T02:21:28.144Z,1005.54
2019-01-18T02:22:28.192Z,1005.54
2019-01-18T02:23:28.242Z,1005.54
2019-01-18T02:24:28.291Z,1005.55
2019-01-18T02:25:28.344Z,1005.54
2019-01-18T02:26:28.404Z,1005.53
2019-01-18T02:27:28.438Z,1005.51
2019-01-18T02:28:28.486Z,1005.52
2019-01-18T02:29:28.535Z,1005.51
2019-01-18T02:30:28.589Z,1005.54
2019-01-18T02:31:28.631Z,1005.55
2019-01-18T02:32:28.679Z,1005.54
2019-01-18T02:33:28.732Z,1005.54
2019-01-18T02:34:28.776Z,1005.58
2019-01-18T02:35:28.827Z,1005.59
2019-01-18T02:36:28.881Z,1005.59
2019-01-18T02:37:28.923Z,1005.61
2019-01-18T02:38:28.973Z,1005.57
2019-01-18T02:39:29.022Z,1005.59
2019-01-18T02:40:29.073Z,1005.63
2019-01-18T02:41:29.122Z,1005.64
2019-01-18T02:42:29.167Z,1005.60
2019-01-18T02:43:29.218Z,1005.62
2019-01-18T02:44:29.267Z,1005.66
2019-01-18T02:45:29.314Z,1005.66
2019-01-18T02:46:29.362Z,1005.68
2019-01-18T02:47:29.410Z,1005.67
2019-01-18T02:48:29.459Z,1005.69
2019-01-18T02:49:29.508Z,1005.73
2019-01-18T02:50:30.102Z,1005.74
2019-01-18T02:51:29.607Z,1005.71
2019-01-18T02:52:29.653Z,1005.75
2019-01-18T02:53:29.702Z,1005.72
2019-01-18T02:54:29.751Z,1005.72
2019-01-18T02:55:29.800Z,1005.74
2019-01-18T02:56:29.849Z,1005.76
2019-01-18T02:57:29.899Z,1005.78
2019-01-18T02:58:29.945Z,1005.82
2019-01-18T02:59:29.996Z,1005.81
2019-01-18T03:00:30.043Z,1005.86
2019-01-18T03:01:30.093Z,1005.90
2019-01-18T03:02:30.140Z,1005.90
2019-01-18T03:03:30.190Z,1005.90
2019-01-18T03:04:30.238Z,1005.91
2019-01-18T03:05:30.288Z,1005.96
2019-01-18T03:06:30.336Z,1005.98
2019-01-18T03:07:30.383Z,1005.99
2019-01-18T03:08:30.433Z,1005.99
2019-01-18T03:09:30.481Z,1005.96
2019-01-18T03:10:30.576Z,1005.98
2019-01-18T03:11:30.578Z,1005.97
2019-01-18T03:12:30.625Z,1005.95
2019-01-18T03:13:30.677Z,1006.00
2019-01-18T03:14:30.723Z,1006.00
2019-01-18T03:15:30.771Z,1006.04
2019-01-18T03:16:30.819Z,1006.03
2019-01-18T03:17:30.869Z,1006.01
2019-01-18T03:18:30.916Z,1006.05
2019-01-18T03:19:30.967Z,1006.00
2019-01-18T03:20:31.018Z,1006.02
2019-01-18T03:21:31.064Z,1006.05
2019-01-18T03:22:31.116Z,1006.08
2019-01-18T03:23:31.160Z,1006.10
2019-01-18T03:24:31.208Z,1006.09
2019-01-18T03:25:31.258Z,1006.13
2019-01-18T03:26:31.305Z,1006.17
2019-01-18T03:27:31.354Z,1006.22
2019-01-18T03:28:31.404Z,1006.27
2019-01-18T03:29:31.451Z,1006.35
2019-01-18T03:30:31.499Z,1006.37
2019-01-18T03:31:31.559Z,1006.36
2019-01-18T03:32:31.597Z,1006.39
2019-01-18T03:33:31.645Z,1006.36
2019-01-18T03:34:31.693Z,1006.42
2019-01-18T03:35:31.746Z,1006.37
2019-01-18T03:36:31.792Z,1006.38
2019-01-18T03:37:31.840Z,1006.39
2019-01-18T03:38:31.887Z,1006.39
2019-01-18T03:39:31.937Z,1006.41
2019-01-18T03:40:31.985Z,1006.38
2019-01-18T03:41:32.033Z,1006.42
2019-01-18T03:42:32.081Z,1006.45
2019-01-18T03:43:32.133Z,1006.48
2019-01-18T03:44:32.178Z,1006.48
2019-01-18T03:45:32.229Z,1006.44
2019-01-18T03:46:32.275Z,1006.50
2019-01-18T03:47:32.324Z,1006.50
2019-01-18T03:48:32.373Z,1006.49
2019-01-18T03:49:32.422Z,1006.51
2019-01-18T03:50:32.470Z,1006.54
2019-01-18T03:51:32.519Z,1006.56
2019-01-18T03:52:32.568Z,1006.53
2019-01-18T03:53:32.615Z,1006.51
2019-01-18T03:54:32.664Z,1006.51
2019-01-18T03:55:32.713Z,1006.52
2019-01-18T03:56:32.760Z,1006.51
2019-01-18T03:57:32.813Z,1006.53
2019-01-18T03:58:32.857Z,1006.55
2019-01-18T03:59:32.906Z,1006.51
2019-01-18T04:00:32.957Z,1006.53
2019-01-18T04:01:33.004Z,1006.57
2019-01-18T04:02:33.051Z,1006.57
2019-01-18T04:03:33.101Z,1006.61
2019-01-18T04:04:33.149Z,1006.67
2019-01-18T04:05:33.197Z,1006.64
2019-01-18T04:06:33.245Z,1006.65
2019-01-18T04:07:33.295Z,1006.64
2019-01-18T04:08:33.343Z,1006.64
2019-01-18T04:09:33.390Z,1006.71
2019-01-18T04:10:33.443Z,1006.66
2019-01-18T04:11:33.488Z,1006.65
2019-01-18T04:12:33.540Z,1006.66
2019-01-18T04:13:33.589Z,1006.71
2019-01-18T04:14:33.633Z,1006.73
2019-01-18T04:15:33.683Z,1006.73
2019-01-18T04:16:33.734Z,1006.74
2019-01-18T04:17:33.779Z,1006.78
2019-01-18T04:18:33.826Z,1006.75
2019-01-18T04:19:33.911Z,1006.84
2019-01-18T04:20:33.924Z,1006.84
2019-01-18T04:21:33.974Z,1006.86
2019-01-18T04:22:34.021Z,1006.90
2019-01-18T04:23:34.070Z,1006.91
2019-01-18T04:24:34.117Z,1006.93
2019-01-18T04:25:34.168Z,1006.93
2019-01-18T04:26:34.214Z,1006.97
2019-01-18T04:27:34.264Z,1007.00
2019-01-18T04:28:34.312Z,1006.96
2019-01-18T04:29:34.360Z,1006.99
2019-01-18T04:30:34.412Z,1007.04
2019-01-18T04:31:34.459Z,1006.99
2019-01-18T04:32:34.506Z,1007.03
2019-01-18T04:33:34.553Z,1007.02
2019-01-18T04:34:34.603Z,1007.06
2019-01-18T04:35:34.649Z,1007.02
2019-01-18T04:36:34.699Z,1007.09
2019-01-18T04:37:34.748Z,1007.08
2019-01-18T04:38:34.795Z,1007.11
2019-01-18T04:39:34.844Z,1007.09
2019-01-18T04:40:34.895Z,1007.09
2019-01-18T04:41:34.942Z,1007.12
2019-01-18T04:42:34.988Z,1007.10
2019-01-18T04:43:35.038Z,1007.13
2019-01-18T04:44:35.097Z,1007.12
2019-01-18T04:45:35.145Z,1007.18
2019-01-18T04:46:35.183Z,1007.14
2019-01-18T04:47:35.230Z,1007.18
2019-01-18T04:48:35.279Z,1007.20
2019-01-18T04:49:35.327Z,1007.22
2019-01-18T04:50:35.374Z,1007.27
2019-01-18T04:51:35.426Z,1007.25
2019-01-18T04:52:35.471Z,1007.28
2019-01-18T04:53:35.522Z,1007.32
2019-01-18T04:54:35.569Z,1007.29
2019-01-18T04:55:35.617Z,1007.34
2019-01-18T04:56:35.666Z,1007.34
2019-01-18T04:57:35.714Z,1007.33
2019-01-18T04:58:35.761Z,1007.31
2019-01-18T04:59:35.809Z,1007.39
2019-01-18T05:00:40.662Z,1007.42
2019-01-18T05:01:35.906Z,1007.41
2019-01-18T05:02:35.954Z,1007.40
2019-01-18T05:03:36.019Z,1007.45
2019-01-18T05:04:36.051Z,1007.44
2019-01-18T05:05:36.100Z,1007.45
2019-01-18T05:06:36.148Z,1007.42
2019-01-18T05:07:36.197Z,1007.43
2019-01-18T05:08:36.246Z,1007.46
2019-01-18T05:09:36.294Z,1007.45
2019-01-18T05:10:36.341Z,1007.49
2019-01-18T05:11:36.391Z,1007.44
2019-01-18T05:12:36.436Z,1007.48
2019-01-18T05:13:36.486Z,1007.48
2019-01-18T05:14:36.534Z,1007.54
2019-01-18T05:15:36.580Z,1007.56
2019-01-18T05:16:36.631Z,1007.57
2019-01-18T05:17:36.680Z,1007.56
2019-01-18T05:18:36.725Z,1007.57
2019-01-18T05:19:36.775Z,1007.54
2019-01-18T05:20:36.823Z,1007.61
2019-01-18T05:21:36.877Z,1007.61
2019-01-18T05:22:36.918Z,1007.64
2019-01-18T05:23:36.967Z,1007.65
2019-01-18T05:24:37.015Z,1007.66
2019-01-18T05:25:37.066Z,1007.69
2019-01-18T05:26:37.111Z,1007.68
2019-01-18T05:27:37.162Z,1007.73
2019-01-18T05:28:37.210Z,1007.67
2019-01-18T05:29:37.257Z,1007.74
2019-01-18T05:30:37.304Z,1007.76
2019-01-18T05:31:37.376Z,1007.75
2019-01-18T05:32:37.401Z,1007.72
2019-01-18T05:33:37.451Z,1007.77
2019-01-18T05:34:37.497Z,1007.78
2019-01-18T05:35:37.547Z,1007.79
2019-01-18T05:36:37.596Z,1007.88
2019-01-18T05:37:37.643Z,1007.84
2019-01-18T05:38:37.691Z,1007.88
2019-01-18T05:39:37.738Z,1007.88
2019-01-18T05:40:37.788Z,1007.91
2019-01-18T05:41:37.835Z,1007.90
2019-01-18T05:42:37.883Z,1007.91
2019-01-18T05:43:37.931Z,1007.92
2019-01-18T05:44:37.981Z,1007.92
2019-01-18T05:45:38.028Z,1007.90
2019-01-18T05:46:38.075Z,1007.93
2019-01-18T05:47:38.124Z,1007.93
2019-01-18T05:48:38.174Z,1007.92
2019-01-18T05:49:38.221Z,1007.97
2019-01-18T05:50:38.267Z,1007.96
2019-01-18T05:51:38.318Z,1008.01
2019-01-18T05:52:38.365Z,1008.01
2019-01-18T05:53:38.413Z,1008.03
2019-01-18T05:54:38.462Z,1008.03
2019-01-18T05:55:38.510Z,1008.06
2019-01-18T05:56:38.557Z,1008.07
2019-01-18T05:57:38.610Z,1008.09
2019-01-18T05:58:38.655Z,1008.10
2019-01-18T05:59:38.704Z,1008.11
2019-01-18T06:00:38.755Z,1008.10
2019-01-18T06:01:38.799Z,1008.11
2019-01-18T06:02:38.846Z,1008.13
2019-01-18T06:03:38.896Z,1008.13
2019-01-18T06:04:38.944Z,1008.15
2019-01-18T06:05:38.992Z,1008.16
2019-01-18T06:06:39.042Z,1008.15
2019-01-18T06:07:39.092Z,1008.17
2019-01-18T06:08:39.147Z,1008.17
2019-01-18T06:09:39.186Z,1008.17
2019-01-18T06:10:39.247Z,1008.19
2019-01-18T06:11:39.282Z,1008.18
2019-01-18T06:12:39.332Z,1008.20
2019-01-18T06:13:39.747Z,1008.17
2019-01-18T06:14:39.426Z,1008.20
2019-01-18T06:15:40.436Z,1008.21
2019-01-18T06:16:39.523Z,1008.14
2019-01-18T06:17:39.572Z,1008.16
2019-01-18T06:18:39.621Z,1008.18
2019-01-18T06:19:39.667Z,1008.22
2019-01-18T06:20:39.735Z,1008.20
2019-01-18T06:21:39.769Z,1008.21
2019-01-18T06:22:39.814Z,1008.20
2019-01-18T06:23:39.861Z,1008.18
2019-01-18T06:24:39.910Z,1008.19
2019-01-18T06:25:39.965Z,1008.19
2019-01-18T06:26:40.006Z,1008.15
2019-01-18T06:27:40.055Z,1008.13
2019-01-18T06:28:40.104Z,1008.14
2019-01-18T06:29:40.151Z,1008.15
2019-01-18T06:30:40.198Z,1008.16
2019-01-18T06:31:40.247Z,1008.19
2019-01-18T06:32:40.295Z,1008.23
2019-01-18T06:33:40.344Z,1008.21
2019-01-18T06:34:40.390Z,1008.25
2019-01-18T06:35:40.440Z,1008.30
2019-01-18T06:36:40.487Z,1008.29
2019-01-18T06:37:40.535Z,1008.28
2019-01-18T06:38:41.188Z,1008.29
2019-01-18T06:39:40.636Z,1008.33
2019-01-18T06:40:40.681Z,1008.30
2019-01-18T06:41:40.728Z,1008.28
2019-01-18T06:42:40.775Z,1008.28
2019-01-18T06:43:40.826Z,1008.30
2019-01-18T06:44:40.872Z,1008.30
2019-01-18T06:45:40.920Z,1008.34
2019-01-18T06:46:40.968Z,1008.40
2019-01-18T06:47:41.016Z,1008.37
2019-01-18T06:48:41.064Z,1008.39
2019-01-18T06:49:41.113Z,1008.40
2019-01-18T06:50:41.177Z,1008.38
2019-01-18T06:51:41.208Z,1008.42
2019-01-18T06:52:41.258Z,1008.42
2019-01-18T06:53:41.304Z,1008.46
2019-01-18T06:54:41.350Z,1008.45
2019-01-18T06:55:41.398Z,1008.46
2019-01-18T06:56:41.447Z,1008.44
2019-01-18T06:57:41.496Z,1008.43
2019-01-18T06:58:41.542Z,1008.46
2019-01-18T06:59:41.590Z,1008.49
2019-01-18T07:00:41.642Z,1008.48
2019-01-18T07:01:41.687Z,1008.49
2019-01-18T07:02:41.735Z,1008.50
2019-01-18T07:03:41.783Z,1008.48
2019-01-18T07:04:42.424Z,1008.47
2019-01-18T07:05:41.879Z,1008.49
2019-01-18T07:06:41.926Z,1008.49
2019-01-18T07:07:41.976Z,1008.51
2019-01-18T07:08:42.022Z,1008.49
2019-01-18T07:09:42.071Z,1008.48
2019-01-18T07:10:42.119Z,1008.53
2019-01-18T07:11:42.166Z,1008.53
2019-01-18T07:12:42.235Z,1008.55
2019-01-18T07:13:42.278Z,1008.58
2019-01-18T07:14:42.342Z,1008.64
2019-01-18T07:15:42.356Z,1008.67
2019-01-18T07:16:42.407Z,1008.71
2019-01-18T07:17:42.453Z,1008.72
2019-01-18T07:18:42.503Z,1008.76
2019-01-18T07:19:42.548Z,1008.74
2019-01-18T07:20:42.596Z,1008.74
2019-01-18T07:21:42.645Z,1008.72
2019-01-18T07:22:43.164Z,1008.75
2019-01-18T07:23:42.738Z,1008.74
2019-01-18T07:24:42.788Z,1008.77
2019-01-18T07:25:42.836Z,1008.74
2019-01-18T07:26:42.883Z,1008.76
2019-01-18T07:27:42.930Z,1008.77
2019-01-18T07:28:42.979Z,1008.76
2019-01-18T07:29:43.026Z,1008.70
2019-01-18T07:30:43.074Z,1008.71
2019-01-18T07:31:43.123Z,1008.71
2019-01-18T07:32:43.201Z,1008.77
2019-01-18T07:33:43.236Z,1008.78
2019-01-18T07:34:43.575Z,1008.76
2019-01-18T07:35:43.315Z,1008.75
2019-01-18T07:36:43.360Z,1008.81
2019-01-18T07:37:43.407Z,1008.80
2019-01-18T07:38:43.454Z,1008.88
2019-01-18T07:39:43.504Z,1008.87
2019-01-18T07:40:43.550Z,1008.89
2019-01-18T07:41:43.599Z,1008.91
2019-01-18T07:42:43.646Z,1008.97
2019-01-18T07:43:43.693Z,1008.95
2019-01-18T07:44:43.743Z,1008.96
2019-01-18T07:45:43.790Z,1009.02
2019-01-18T07:46:43.837Z,1009.01
2019-01-18T07:47:43.887Z,1009.04
2019-01-18T07:48:43.931Z,1009.05
2019-01-18T07:49:44.011Z,1009.05
2019-01-18T07:50:44.032Z,1009.07
2019-01-18T07:51:44.075Z,1009.10
2019-01-18T07:52:44.123Z,1009.04
2019-01-18T07:53:44.216Z,1009.11
2019-01-18T07:54:44.219Z,1009.12
2019-01-18T07:55:44.269Z,1009.15
2019-01-18T07:56:44.314Z,1009.20
2019-01-18T07:57:44.363Z,1009.28
2019-01-18T07:58:44.409Z,1009.28
2019-01-18T07:59:44.459Z,1009.31
2019-01-18T08:00:44.506Z,1009.35
2019-01-18T08:01:44.555Z,1009.34
2019-01-18T08:02:44.600Z,1009.41
2019-01-18T08:03:44.650Z,1009.41
2019-01-18T08:04:44.698Z,1009.45
2019-01-18T08:05:44.745Z,1009.48
2019-01-18T08:06:44.792Z,1009.47
2019-01-18T08:07:44.840Z,1009.44
2019-01-18T08:08:45.268Z,1009.50
2019-01-18T08:09:44.937Z,1009.48
2019-01-18T08:10:44.984Z,1009.54
2019-01-18T08:11:45.032Z,1009.51
2019-01-18T08:12:45.079Z,1009.55
2019-01-18T08:13:45.129Z,1009.59
2019-01-18T08:14:45.214Z,1009.59
2019-01-18T08:15:45.237Z,1009.58
2019-01-18T08:16:45.645Z,1009.65
2019-01-18T08:17:45.320Z,1009.64
2019-01-18T08:18:45.368Z,1009.65
2019-01-18T08:19:45.416Z,1009.69
2019-01-18T08:20:45.464Z,1009.70
2019-01-18T08:21:45.513Z,1009.67
2019-01-18T08:22:45.558Z,1009.70
2019-01-18T08:23:45.702Z,1009.70
2019-01-18T08:24:45.658Z,1009.68
2019-01-18T08:25:45.703Z,1009.66
2019-01-18T08:26:45.752Z,1009.67
2019-01-18T08:27:45.799Z,1009.68
2019-01-18T08:28:45.858Z,1009.69
2019-01-18T08:29:45.896Z,1009.75
2019-01-18T08:30:45.943Z,1009.75
2019-01-18T08:31:45.992Z,1009.74
2019-01-18T08:32:46.041Z,1009.77
2019-01-18T08:33:46.094Z,1009.76
2019-01-18T08:34:46.341Z,1009.76
2019-01-18T08:35:46.218Z,1009.83
2019-01-18T08:36:46.267Z,1009.87
2019-01-18T08:37:46.283Z,1009.90
2019-01-18T08:38:46.330Z,1009.91
2019-01-18T08:39:46.380Z,1009.99
2019-01-18T08:40:46.947Z,1009.97
2019-01-18T08:41:46.476Z,1010.00
2019-01-18T08:42:46.526Z,1009.99
2019-01-18T08:43:46.571Z,1009.99
2019-01-18T08:44:46.621Z,1009.98
2019-01-18T08:45:46.669Z,1010.02
2019-01-18T08:46:46.717Z,1010.04
2019-01-18T08:47:46.765Z,1010.02
2019-01-18T08:48:46.816Z,1010.03
2019-01-18T08:49:46.894Z,1010.03
2019-01-18T08:50:46.910Z,1010.09
2019-01-18T08:51:46.958Z,1010.13
2019-01-18T08:52:47.008Z,1010.12
2019-01-18T08:53:47.069Z,1010.13
2019-01-18T08:54:47.131Z,1010.12
2019-01-18T08:55:47.189Z,1010.15
2019-01-18T08:56:47.200Z,1010.16
2019-01-18T08:57:47.250Z,1010.11
2019-01-18T08:58:47.297Z,1010.11
2019-01-18T08:59:47.508Z,1010.19
2019-01-18T09:00:47.394Z,1010.18
2019-01-18T09:01:47.443Z,1010.18
2019-01-18T09:02:47.491Z,1010.19
2019-01-18T09:03:47.539Z,1010.21
2019-01-18T09:04:47.589Z,1010.22
2019-01-18T09:05:47.637Z,1010.23
2019-01-18T09:06:47.683Z,1010.26
2019-01-18T09:07:47.734Z,1010.25
2019-01-18T09:08:47.782Z,1010.28
2019-01-18T09:09:47.830Z,1010.26
2019-01-18T09:10:47.877Z,1010.27
2019-01-18T09:11:47.927Z,1010.31
2019-01-18T09:12:47.976Z,1010.30
2019-01-18T09:13:48.069Z,1010.31
2019-01-18T09:14:48.156Z,1010.33
2019-01-18T09:15:48.133Z,1010.31
2019-01-18T09:16:48.170Z,1010.32
2019-01-18T09:17:48.220Z,1010.32
2019-01-18T09:18:48.268Z,1010.33
2019-01-18T09:19:48.315Z,1010.32
2019-01-18T09:20:48.365Z,1010.33
2019-01-18T09:21:48.413Z,1010.39
2019-01-18T09:22:48.463Z,1010.42
2019-01-18T09:23:48.508Z,1010.41
2019-01-18T09:24:49.799Z,1010.42
2019-01-18T09:25:48.608Z,1010.41
2019-01-18T09:26:48.656Z,1010.43
2019-01-18T09:27:48.705Z,1010.44
2019-01-18T09:28:48.755Z,1010.47
2019-01-18T09:29:48.811Z,1010.44
2019-01-18T09:30:48.851Z,1010.44
2019-01-18T09:31:48.901Z,1010.45
2019-01-18T09:32:48.949Z,1010.42
2019-01-18T09:33:49.027Z,1010.47
2019-01-18T09:34:49.082Z,1010.44
2019-01-18T09:35:49.094Z,1010.43
2019-01-18T09:36:49.179Z,1010.43
2019-01-18T09:37:49.194Z,1010.50
2019-01-18T09:38:49.242Z,1010.51
2019-01-18T09:39:49.291Z,1010.47
2019-01-18T09:40:49.348Z,1010.49
2019-01-18T09:41:49.388Z,1010.50
2019-01-18T09:42:49.441Z,1010.52
2019-01-18T09:43:49.486Z,1010.50
2019-01-18T09:44:49.536Z,1010.49
2019-01-18T09:45:49.651Z,1010.49
2019-01-18T09:46:49.663Z,1010.52
2019-01-18T09:47:49.681Z,1010.55
2019-01-18T09:48:49.746Z,1010.56
2019-01-18T09:49:49.781Z,1010.60
2019-01-18T09:50:49.846Z,1010.60
2019-01-18T09:51:49.881Z,1010.59
2019-01-18T09:52:49.972Z,1010.65
2019-01-18T09:53:50.003Z,1010.68
2019-01-18T09:54:50.027Z,1010.64
2019-01-18T09:55:50.074Z,1010.69
2019-01-18T09:56:50.727Z,1010.67
2019-01-18T09:57:50.173Z,1010.67
2019-01-18T09:58:50.250Z,1010.68
2019-01-18T09:59:50.369Z,1010.66
2019-01-18T10:00:50.340Z,1010.66
2019-01-18T10:01:50.369Z,1010.65
2019-01-18T10:02:50.418Z,1010.65
2019-01-18T10:03:50.467Z,1010.66
2019-01-18T10:04:50.535Z,1010.66
2019-01-18T10:05:50.564Z,1010.65
2019-01-18T10:06:50.615Z,1010.65
2019-01-18T10:07:50.664Z,1010.70
2019-01-18T10:08:50.713Z,1010.70
2019-01-18T10:09:50.762Z,1010.74
2019-01-18T10:10:50.810Z,1010.73
2019-01-18T10:11:50.861Z,1010.73
2019-01-18T10:12:50.910Z,1010.72
2019-01-18T10:13:50.960Z,1010.73
2019-01-18T10:14:51.008Z,1010.71
2019-01-18T10:15:51.057Z,1010.70
2019-01-18T10:16:51.105Z,1010.61
2019-01-18T10:17:51.161Z,1010.64
2019-01-18T10:18:51.204Z,1010.66
2019-01-18T10:19:51.253Z,1010.64
2019-01-18T10:20:51.303Z,1010.61
2019-01-18T10:21:51.353Z,1010.61
2019-01-18T10:22:51.402Z,1010.60
2019-01-18T10:23:51.453Z,1010.60
2019-01-18T10:24:51.868Z,1010.57
2019-01-18T10:25:51.551Z,1010.56
2019-01-18T10:26:51.600Z,1010.54
2019-01-18T10:27:51.686Z,1010.50
2019-01-18T10:28:51.698Z,1010.49
2019-01-18T10:29:51.753Z,1010.49
2019-01-18T10:30:51.802Z,1010.47
2019-01-18T10:31:55.990Z,1010.48
2019-01-18T10:32:51.896Z,1010.47
2019-01-18T10:33:51.951Z,1010.44
2019-01-18T10:34:51.997Z,1010.44
2019-01-18T10:35:52.062Z,1010.48
2019-01-18T10:36:52.096Z,1010.46
2019-01-18T10:37:52.146Z,1010.43
2019-01-18T10:38:52.195Z,1010.41
2019-01-18T10:39:52.244Z,1010.42
2019-01-18T10:40:52.295Z,1010.39
2019-01-18T10:41:52.350Z,1010.38
2019-01-18T10:42:52.394Z,1010.37
2019-01-18T10:43:52.444Z,1010.39
2019-01-18T10:44:52.497Z,1010.38
2019-01-18T10:45:52.547Z,1010.39
2019-01-18T10:46:52.596Z,1010.41
2019-01-18T10:47:52.646Z,1010.35
2019-01-18T10:48:52.695Z,1010.35
2019-01-18T10:49:52.745Z,1010.35
2019-01-18T10:50:52.794Z,1010.33
2019-01-18T10:51:52.843Z,1010.36
2019-01-18T10:52:52.903Z,1010.36
2019-01-18T10:53:52.948Z,1010.41
2019-01-18T10:54:52.994Z,1010.41
2019-01-18T10:55:53.043Z,1010.39
2019-01-18T10:56:53.094Z,1010.41
2019-01-18T10:57:53.145Z,1010.39
2019-01-18T10:58:53.194Z,1010.41
2019-01-18T10:59:53.244Z,1010.41
2019-01-18T11:00:53.294Z,1010.44
2019-01-18T11:01:59.603Z,1010.44
2019-01-18T11:02:53.394Z,1010.42
2019-01-18T11:03:53.444Z,1010.43
2019-01-18T11:04:53.495Z,1010.44
2019-01-18T11:05:53.545Z,1010.44
2019-01-18T11:06:53.593Z,1010.45
2019-01-18T11:07:53.644Z,1010.46
2019-01-18T11:08:53.695Z,1010.43
2019-01-18T11:09:53.744Z,1010.42
2019-01-18T11:10:53.795Z,1010.35
2019-01-18T11:11:53.845Z,1010.35
2019-01-18T11:12:53.941Z,1010.40
2019-01-18T11:13:53.966Z,1010.41
2019-01-18T11:14:53.997Z,1010.41
2019-01-18T11:15:54.046Z,1010.42
2019-01-18T11:16:54.099Z,1010.46
2019-01-18T11:17:54.147Z,1010.43
2019-01-18T11:18:54.196Z,1010.44
2019-01-18T11:19:54.248Z,1010.43
2019-01-18T11:20:54.298Z,1010.39
2019-01-18T11:21:54.349Z,1010.33
2019-01-18T11:22:54.399Z,1010.30
2019-01-18T11:23:54.448Z,1010.33
2019-01-18T11:24:54.500Z,1010.29
2019-01-18T11:25:54.550Z,1010.31
2019-01-18T11:26:54.612Z,1010.28
2019-01-18T11:27:54.651Z,1010.28
2019-01-18T11:28:55.222Z,1010.26
2019-01-18T11:29:54.751Z,1010.27
2019-01-18T11:30:54.802Z,1010.25
2019-01-18T11:31:54.852Z,1010.29
2019-01-18T11:32:54.920Z,1010.32
2019-01-18T11:33:54.957Z,1010.35
2019-01-18T11:34:55.005Z,1010.31
2019-01-18T11:35:55.055Z,1010.35
2019-01-18T11:36:56.684Z,1010.32
2019-01-18T11:37:55.170Z,1010.29
2019-01-18T11:38:55.206Z,1010.24
2019-01-18T11:39:55.260Z,1010.27
2019-01-18T11:40:55.308Z,1010.28
2019-01-18T11:41:55.360Z,1010.26
2019-01-18T11:42:55.410Z,1010.27
2019-01-18T11:43:55.460Z,1010.27
2019-01-18T11:44:55.933Z,1010.26
2019-01-18T11:45:55.953Z,1010.23
2019-01-18T11:46:55.613Z,1010.28
2019-01-18T11:47:55.663Z,1010.29
2019-01-18T11:48:55.719Z,1010.37
2019-01-18T11:49:55.771Z,1010.42
2019-01-18T11:50:55.816Z,1010.52
2019-01-18T11:51:55.869Z,1010.58
2019-01-18T11:52:55.920Z,1010.64
2019-01-18T11:53:55.971Z,1010.59
2019-01-18T11:54:56.022Z,1010.61
2019-01-18T11:55:56.074Z,1010.66
2019-01-18T11:56:56.128Z,1010.64
2019-01-18T11:57:56.178Z,1010.61
2019-01-18T11:58:56.230Z,1010.41
2019-01-18T11:59:56.285Z,1010.52
2019-01-18T12:00:56.336Z,1010.47
2019-01-18T12:01:56.394Z,1010.36
2019-01-18T12:02:56.442Z,1010.35
2019-01-18T12:03:56.494Z,1010.41
2019-01-18T12:04:56.548Z,1010.51
2019-01-18T12:05:56.601Z,1010.56